createdAt,value
2019-03-04T00:01:06.668Z,8.80
2019-03-04T00:03:36.179Z,8.80
2019-03-04T00:06:05.650Z,8.80
2019-03-04T00:08:35.087Z,8.70
2019-03-04T00:11:04.555Z,8.70
2019-03-04T00:13:33.991Z,8.60
2019-03-04T00:16:03.411Z,8.60
2019-03-04T00:18:32.915Z,8.70
2019-03-04T00:21:03.707Z,8.60
2019-03-04T00:23:33.214Z,8.60
2019-03-04T00:26:02.692Z,8.50
2019-03-04T00:28:32.200Z,8.60
2019-03-04T00:31:01.675Z,8.60
2019-03-04T00:33:31.182Z,8.50
2019-03-04T00:36:00.666Z,8.40
2019-03-04T00:38:30.172Z,8.50
2019-03-04T00:40:59.654Z,8.50
2019-03-04T00:43:29.112Z,8.50
2019-03-04T00:45:58.583Z,8.50
2019-03-04T00:48:28.065Z,8.40
2019-03-04T00:50:57.503Z,8.50
2019-03-04T00:53:26.986Z,8.40
2019-03-04T00:55:57.685Z,8.40
2019-03-04T00:58:27.095Z,8.40
2019-03-04T01:00:57.898Z,8.40
2019-03-04T01:03:27.348Z,8.40
2019-03-04T01:05:56.750Z,8.40
2019-03-04T01:08:26.161Z,8.40
2019-03-04T01:10:55.664Z,8.40
2019-03-04T01:13:25.421Z,8.50
2019-03-04T01:15:56.126Z,8.40
2019-03-04T01:18:25.535Z,8.40
2019-03-04T01:20:54.974Z,8.40
2019-03-04T01:23:24.382Z,8.40
2019-03-04T01:25:53.919Z,8.40
2019-03-04T01:28:23.365Z,8.50
2019-03-04T01:30:54.072Z,8.50
2019-03-04T01:33:23.552Z,8.40
2019-03-04T01:35:53.023Z,8.40
2019-03-04T01:38:22.429Z,8.30
2019-03-04T01:40:53.408Z,8.30
2019-03-04T01:43:22.883Z,8.30
2019-03-04T01:45:52.320Z,8.30
2019-03-04T01:48:21.718Z,8.20
2019-03-04T01:50:53.052Z,8.20
2019-03-04T01:53:22.455Z,8.10
2019-03-04T01:55:51.883Z,8.10
2019-03-04T01:58:21.328Z,8.00
2019-03-04T02:00:50.739Z,8.10
2019-03-04T02:03:20.252Z,8.10
2019-03-04T02:05:49.721Z,8.10
2019-03-04T02:08:19.174Z,8.00
2019-03-04T02:10:48.649Z,8.00
2019-03-04T02:13:18.073Z,8.00
2019-03-04T02:15:48.951Z,8.00
2019-03-04T02:18:18.463Z,7.90
2019-03-04T02:20:47.945Z,7.90
2019-03-04T02:23:17.386Z,7.90
2019-03-04T02:25:50.119Z,7.90
2019-03-04T02:28:19.639Z,8.00
2019-03-04T02:30:50.453Z,8.10
2019-03-04T02:33:19.970Z,8.00
2019-03-04T02:35:49.373Z,7.90
2019-03-04T02:38:18.811Z,8.00
2019-03-04T02:40:49.592Z,8.10
2019-03-04T02:43:19.119Z,8.00
2019-03-04T02:45:48.521Z,8.10
2019-03-04T02:48:17.954Z,8.20
2019-03-04T02:50:48.931Z,8.30
2019-03-04T02:53:18.451Z,8.20
2019-03-04T02:55:47.858Z,8.20
2019-03-04T02:58:17.299Z,8.20
2019-03-04T03:00:47.986Z,8.30
2019-03-04T03:03:17.407Z,8.30
2019-03-04T03:05:48.194Z,8.40
2019-03-04T03:08:17.692Z,8.40
2019-03-04T03:10:47.168Z,8.40
2019-03-04T03:13:16.610Z,8.50
2019-03-04T03:15:46.078Z,8.50
2019-03-04T03:18:15.983Z,8.50
2019-03-04T03:20:46.854Z,8.50
2019-03-04T03:23:16.359Z,8.60
2019-03-04T03:25:47.035Z,8.50
2019-03-04T03:28:16.552Z,8.40
2019-03-04T03:30:45.958Z,8.50
2019-03-04T03:33:15.848Z,8.50
2019-03-04T03:35:46.615Z,8.40
2019-03-04T03:38:16.247Z,8.40
2019-03-04T03:40:45.729Z,8.40
2019-03-04T03:43:15.146Z,8.40
2019-03-04T03:45:44.588Z,8.40
2019-03-04T03:48:14.171Z,8.50
2019-03-04T03:50:44.880Z,8.50
2019-03-04T03:53:14.292Z,8.50
2019-03-04T03:55:45.111Z,8.60
2019-03-04T03:58:15.612Z,8.60
2019-03-04T04:00:45.051Z,8.70
2019-03-04T04:03:14.532Z,8.60
2019-03-04T04:05:45.251Z,8.70
2019-03-04T04:08:14.726Z,8.70
2019-03-04T04:10:45.440Z,8.70
2019-03-04T04:13:14.923Z,8.80
2019-03-04T04:15:44.432Z,8.80
2019-03-04T04:18:13.844Z,8.80
2019-03-04T04:20:43.291Z,8.80
2019-03-04T04:23:12.705Z,8.90
2019-03-04T04:25:43.627Z,8.90
2019-03-04T04:28:13.027Z,8.80
2019-03-04T04:30:43.805Z,8.70
2019-03-04T04:33:13.268Z,8.80
2019-03-04T04:35:42.769Z,8.70
2019-03-04T04:38:12.238Z,8.80
2019-03-04T04:40:41.750Z,8.70
2019-03-04T04:43:11.219Z,8.80
2019-03-04T04:45:42.208Z,8.90
2019-03-04T04:48:14.666Z,8.90
2019-03-04T04:50:45.475Z,8.90
2019-03-04T04:53:14.943Z,8.90
2019-03-04T04:55:44.379Z,8.90
2019-03-04T04:58:13.784Z,8.90
2019-03-04T05:00:43.287Z,8.80
2019-03-04T05:03:12.773Z,8.80
2019-03-04T05:05:42.211Z,8.90
2019-03-04T05:08:11.685Z,8.90
2019-03-04T05:10:41.136Z,9.00
2019-03-04T05:13:10.607Z,8.90
2019-03-04T05:15:41.594Z,8.90
2019-03-04T05:18:13.825Z,8.80
2019-03-04T05:20:44.432Z,8.80
2019-03-04T05:23:13.836Z,8.80
2019-03-04T05:25:43.373Z,8.80
2019-03-04T05:28:12.767Z,8.70
2019-03-04T05:30:42.178Z,8.70
2019-03-04T05:33:11.610Z,8.80
2019-03-04T05:35:41.089Z,8.70
2019-03-04T05:38:10.532Z,8.70
2019-03-04T05:40:41.402Z,8.70
2019-03-04T05:43:10.847Z,8.70
2019-03-04T05:45:41.514Z,8.70
2019-03-04T05:48:11.015Z,8.70
2019-03-04T05:50:40.492Z,8.70
2019-03-04T05:53:10.013Z,8.70
2019-03-04T05:55:39.416Z,8.70
2019-03-04T05:58:08.923Z,8.70
2019-03-04T06:00:41.338Z,8.70
2019-03-04T06:03:14.120Z,8.70
2019-03-04T06:05:43.527Z,8.50
2019-03-04T06:08:16.497Z,8.60
2019-03-04T06:10:47.374Z,8.70
2019-03-04T06:13:16.813Z,8.70
2019-03-04T06:15:47.588Z,8.80
2019-03-04T06:18:17.027Z,8.90
2019-03-04T06:20:47.694Z,9.00
2019-03-04T06:23:17.203Z,8.90
2019-03-04T06:25:46.613Z,8.80
2019-03-04T06:28:16.052Z,8.80
2019-03-04T06:30:45.527Z,8.80
2019-03-04T06:33:14.974Z,8.80
2019-03-04T06:35:44.380Z,8.80
2019-03-04T06:38:13.816Z,8.80
2019-03-04T06:40:43.225Z,8.90
2019-03-04T06:43:12.655Z,9.20
2019-03-04T06:45:43.427Z,9.30
2019-03-04T06:48:12.927Z,9.20
2019-03-04T06:50:46.302Z,9.30
2019-03-04T06:53:25.079Z,9.30
2019-03-04T06:56:12.909Z,9.20
2019-03-04T06:58:54.416Z,9.10
2019-03-04T07:01:27.079Z,9.00
2019-03-04T07:03:59.851Z,9.00
2019-03-04T07:06:30.490Z,9.00
2019-03-04T07:09:02.235Z,9.00
2019-03-04T07:11:33.185Z,9.00
2019-03-04T07:14:02.635Z,9.10
2019-03-04T07:16:33.452Z,9.10
2019-03-04T07:19:04.012Z,9.20
2019-03-04T07:21:34.695Z,9.30
2019-03-04T07:24:04.918Z,9.40
2019-03-04T07:26:35.899Z,9.50
2019-03-04T07:29:06.223Z,9.50
2019-03-04T07:31:36.899Z,9.60
2019-03-04T07:34:06.409Z,9.70
2019-03-04T07:36:37.114Z,9.80
2019-03-04T07:39:07.439Z,10.00
2019-03-04T07:41:38.148Z,10.20
2019-03-04T07:44:07.631Z,10.40
2019-03-04T07:46:37.535Z,10.50
2019-03-04T07:49:07.014Z,10.90
2019-03-04T07:51:36.450Z,11.10
2019-03-04T07:54:05.931Z,11.30
2019-03-04T07:56:36.641Z,11.30
2019-03-04T07:59:06.124Z,11.50
2019-03-04T08:01:36.823Z,11.80
2019-03-04T08:04:06.298Z,11.70
2019-03-04T08:06:35.809Z,11.50
2019-03-04T08:09:26.450Z,11.30
2019-03-04T08:12:25.124Z,11.40
2019-03-04T08:14:54.579Z,11.40
2019-03-04T08:17:25.251Z,11.60
2019-03-04T08:19:54.732Z,11.70
2019-03-04T08:22:25.459Z,11.70
2019-03-04T08:24:54.863Z,11.70
2019-03-04T08:27:25.677Z,11.70
2019-03-04T08:29:55.155Z,11.70
2019-03-04T08:32:24.602Z,11.70
2019-03-04T08:34:54.092Z,11.70
2019-03-04T08:37:24.794Z,11.50
2019-03-04T08:39:54.196Z,11.60
2019-03-04T08:42:25.183Z,11.70
2019-03-04T08:44:54.584Z,11.70
2019-03-04T08:47:25.296Z,11.70
2019-03-04T08:49:54.700Z,11.60
2019-03-04T08:52:25.407Z,11.50
2019-03-04T08:54:54.879Z,11.60
2019-03-04T08:57:25.696Z,11.50
2019-03-04T08:59:55.163Z,11.40
2019-03-04T09:02:25.863Z,11.50
2019-03-04T09:04:55.271Z,11.40
2019-03-04T09:07:24.704Z,11.40
2019-03-04T09:09:54.115Z,11.40
2019-03-04T09:12:23.622Z,11.40
2019-03-04T09:14:53.094Z,11.40
2019-03-04T09:17:22.594Z,11.40
2019-03-04T09:19:52.079Z,11.50
2019-03-04T09:22:21.612Z,11.60
2019-03-04T09:24:51.009Z,11.70
2019-03-04T09:27:20.536Z,11.60
2019-03-04T09:29:49.938Z,11.70
2019-03-04T09:32:19.468Z,11.80
2019-03-04T09:34:48.870Z,11.70
2019-03-04T09:37:19.769Z,11.40
2019-03-04T09:39:49.276Z,11.30
2019-03-04T09:42:21.720Z,11.20
2019-03-04T09:44:51.168Z,11.30
2019-03-04T09:47:20.574Z,11.40
2019-03-04T09:49:50.075Z,11.20
2019-03-04T09:52:19.482Z,11.10
2019-03-04T09:54:48.925Z,10.90
2019-03-04T09:57:18.327Z,10.90
2019-03-04T09:59:47.843Z,11.50
2019-03-04T10:02:19.095Z,11.80
2019-03-04T10:04:57.316Z,11.70
2019-03-04T10:07:32.966Z,12.30
2019-03-04T10:10:17.698Z,13.00
2019-03-04T10:12:54.387Z,13.40
2019-03-04T10:15:36.282Z,12.80
2019-03-04T10:18:11.918Z,12.80
2019-03-04T10:20:57.771Z,13.50
2019-03-04T10:23:30.465Z,14.50
2019-03-04T10:26:03.190Z,14.40
2019-03-04T10:28:52.188Z,14.70
2019-03-04T10:31:27.851Z,13.80
2019-03-04T10:34:09.579Z,13.20
2019-03-04T10:36:49.226Z,13.00
2019-03-04T10:39:24.552Z,12.90
2019-03-04T10:42:27.047Z,12.80
2019-03-04T10:45:28.110Z,12.60
2019-03-04T10:47:57.586Z,13.30
2019-03-04T10:50:28.295Z,13.00
2019-03-04T10:52:57.775Z,12.40
2019-03-04T10:55:27.286Z,12.20
2019-03-04T10:57:56.698Z,12.00
2019-03-04T11:00:27.469Z,11.80
2019-03-04T11:02:56.959Z,11.80
2019-03-04T11:05:27.759Z,11.70
2019-03-04T11:07:57.237Z,11.70
2019-03-04T11:10:26.748Z,11.60
2019-03-04T11:12:56.150Z,11.60
2019-03-04T11:15:27.454Z,11.60
2019-03-04T11:17:56.863Z,11.60
2019-03-04T11:20:26.373Z,11.40
2019-03-04T11:22:55.775Z,11.50
2019-03-04T11:25:25.292Z,11.40
2019-03-04T11:27:54.699Z,11.30
2019-03-04T11:30:31.895Z,11.20
2019-03-04T11:33:01.373Z,11.10
2019-03-04T11:35:32.084Z,11.10
2019-03-04T11:38:01.558Z,11.00
2019-03-04T11:40:39.347Z,11.00
2019-03-04T11:43:08.747Z,11.10
2019-03-04T11:45:39.756Z,11.20
2019-03-04T11:48:09.166Z,11.10
2019-03-04T11:50:39.880Z,11.00
2019-03-04T11:53:09.282Z,11.00
2019-03-04T11:55:39.994Z,11.00
2019-03-04T11:58:09.391Z,10.90
2019-03-04T12:00:52.082Z,10.90
2019-03-04T12:03:21.480Z,10.80
2019-03-04T12:05:52.181Z,10.80
2019-03-04T12:08:21.767Z,10.80
2019-03-04T12:10:52.567Z,10.80
2019-03-04T12:13:22.038Z,10.80
2019-03-04T12:15:52.854Z,10.80
2019-03-04T12:18:22.267Z,10.80
2019-03-04T12:20:53.045Z,10.90
2019-03-04T12:23:22.553Z,10.90
2019-03-04T12:25:52.127Z,10.80
2019-03-04T12:28:22.495Z,10.70
2019-03-04T12:30:53.343Z,10.70
2019-03-04T12:33:24.328Z,10.80
2019-03-04T12:35:53.807Z,10.70
2019-03-04T12:38:24.912Z,10.70
2019-03-04T12:40:54.388Z,10.70
2019-03-04T12:43:23.820Z,10.70
2019-03-04T12:45:53.286Z,10.70
2019-03-04T12:48:22.794Z,10.70
2019-03-04T12:50:53.464Z,10.60
2019-03-04T12:53:22.965Z,10.60
2019-03-04T12:55:52.438Z,10.50
2019-03-04T12:58:21.878Z,10.50
2019-03-04T13:00:52.559Z,10.50
2019-03-04T13:03:22.437Z,10.30
2019-03-04T13:05:51.865Z,10.30
2019-03-04T13:08:21.369Z,10.30
2019-03-04T13:10:50.866Z,10.30
2019-03-04T13:13:20.360Z,10.30
2019-03-04T13:15:51.363Z,10.20
2019-03-04T13:18:20.802Z,10.20
2019-03-04T13:20:50.280Z,10.20
2019-03-04T13:23:19.779Z,10.20
2019-03-04T13:25:49.182Z,10.20
2019-03-04T13:28:18.693Z,10.10
2019-03-04T13:30:49.365Z,10.10
2019-03-04T13:33:18.872Z,10.10
2019-03-04T13:35:48.355Z,10.10
2019-03-04T13:38:17.864Z,10.00
2019-03-04T13:40:48.539Z,10.10
2019-03-04T13:43:17.967Z,10.10
2019-03-04T13:45:48.744Z,10.10
2019-03-04T13:48:18.326Z,10.10
2019-03-04T13:50:49.020Z,10.00
2019-03-04T13:53:18.599Z,10.00
2019-03-04T13:55:48.078Z,10.00
2019-03-04T13:58:17.559Z,10.00
2019-03-04T14:00:48.290Z,10.00
2019-03-04T14:03:17.768Z,10.10
2019-03-04T14:05:48.469Z,10.10
2019-03-04T14:08:18.016Z,10.00
2019-03-04T14:10:49.064Z,10.00
2019-03-04T14:13:18.474Z,10.00
2019-03-04T14:15:53.175Z,10.00
2019-03-04T14:18:22.654Z,9.90
2019-03-04T14:20:52.151Z,9.90
2019-03-04T14:23:21.826Z,10.00
2019-03-04T14:25:52.539Z,10.00
2019-03-04T14:28:21.951Z,10.00
2019-03-04T14:30:51.450Z,10.00
2019-03-04T14:33:20.854Z,10.00
2019-03-04T14:35:51.558Z,10.00
2019-03-04T14:38:21.030Z,10.10
2019-03-04T14:40:51.744Z,10.10
2019-03-04T14:43:21.145Z,10.00
2019-03-04T14:45:50.655Z,10.00
2019-03-04T14:48:20.131Z,9.90
2019-03-04T14:50:50.912Z,9.90
2019-03-04T14:53:20.386Z,10.20
2019-03-04T14:55:51.100Z,10.50
2019-03-04T14:58:20.584Z,10.70
2019-03-04T15:00:52.047Z,10.60
2019-03-04T15:03:23.979Z,10.60
2019-03-04T15:05:53.750Z,10.50
2019-03-04T15:08:23.223Z,10.50
2019-03-04T15:10:53.926Z,10.50
2019-03-04T15:13:23.404Z,10.60
2019-03-04T15:16:01.127Z,10.60
2019-03-04T15:18:24.377Z,10.50
2019-03-04T15:20:55.086Z,10.50
2019-03-04T15:23:24.559Z,10.30
2019-03-04T15:25:53.999Z,10.30
2019-03-04T15:28:27.053Z,10.10
2019-03-04T15:31:01.423Z,10.00
2019-03-04T15:33:30.898Z,10.10
2019-03-04T15:36:01.810Z,10.10
2019-03-04T15:38:31.458Z,10.10
2019-03-04T15:41:02.268Z,10.00
2019-03-04T15:43:31.722Z,10.00
2019-03-04T15:46:02.438Z,10.00
2019-03-04T15:48:31.929Z,9.90
2019-03-04T15:51:01.400Z,9.80
2019-03-04T15:53:30.900Z,9.70
2019-03-04T15:56:01.574Z,9.70
2019-03-04T15:58:31.365Z,9.60
2019-03-04T16:01:00.833Z,9.70
2019-03-04T16:03:30.992Z,9.70
2019-03-04T16:06:01.662Z,9.70
2019-03-04T16:08:31.159Z,9.70
2019-03-04T16:11:01.821Z,9.60
2019-03-04T16:13:31.699Z,9.60
2019-03-04T16:16:01.103Z,9.60
2019-03-04T16:18:30.700Z,9.70
2019-03-04T16:21:00.093Z,9.60
2019-03-04T16:23:29.605Z,9.70
2019-03-04T16:26:02.334Z,9.70
2019-03-04T16:28:31.902Z,9.70
2019-03-04T16:31:01.378Z,9.70
2019-03-04T16:33:31.336Z,9.80
2019-03-04T16:36:02.006Z,10.10
2019-03-04T16:38:31.518Z,10.10
2019-03-04T16:41:02.187Z,10.20
2019-03-04T16:43:31.690Z,10.30
2019-03-04T16:46:01.168Z,8.40
2019-03-04T16:48:30.666Z,7.10
2019-03-04T16:51:00.139Z,6.50
2019-03-04T16:53:32.771Z,6.40
2019-03-04T16:56:02.181Z,6.20
2019-03-04T16:58:31.619Z,6.20
2019-03-04T17:01:02.364Z,6.20
2019-03-04T17:03:31.946Z,6.10
2019-03-04T17:06:02.631Z,6.00
2019-03-04T17:08:33.124Z,6.00
2019-03-04T17:11:03.794Z,5.90
2019-03-04T17:13:33.230Z,6.00
2019-03-04T17:16:03.900Z,6.00
2019-03-04T17:18:33.421Z,6.00
2019-03-04T17:21:02.888Z,6.10
2019-03-04T17:23:32.410Z,6.20
2019-03-04T17:26:03.078Z,6.20
2019-03-04T17:28:32.782Z,6.20
2019-03-04T17:31:02.263Z,6.30
2019-03-04T17:33:31.739Z,6.30
2019-03-04T17:36:01.247Z,6.40
2019-03-04T17:38:31.118Z,6.40
2019-03-04T17:41:01.825Z,6.40
2019-03-04T17:43:31.464Z,6.40
2019-03-04T17:46:02.163Z,6.40
2019-03-04T17:48:31.743Z,6.50
2019-03-04T17:51:01.251Z,6.50
2019-03-04T17:53:30.838Z,6.50
2019-03-04T17:56:00.335Z,6.50
2019-03-04T17:58:29.808Z,6.50
2019-03-04T18:01:00.816Z,6.60
2019-03-04T18:03:30.486Z,6.50
2019-03-04T18:05:59.994Z,6.60
2019-03-04T18:08:29.474Z,6.60
2019-03-04T18:11:00.183Z,6.50
2019-03-04T18:13:29.811Z,6.50
2019-03-04T18:16:00.466Z,6.40
2019-03-04T18:18:29.940Z,6.40
2019-03-04T18:20:59.442Z,6.30
2019-03-04T18:23:28.934Z,6.20
2019-03-04T18:26:11.532Z,6.20
2019-03-04T18:29:01.035Z,6.20
2019-03-04T18:32:05.413Z,6.20
2019-03-04T18:34:41.170Z,6.20
2019-03-04T18:37:16.374Z,6.20
2019-03-04T18:40:06.970Z,6.10
2019-03-04T18:42:50.145Z,6.10
2019-03-04T18:45:40.849Z,6.00
2019-03-04T18:48:28.486Z,5.90
2019-03-04T18:50:59.297Z,5.90
2019-03-04T18:53:28.767Z,5.90
2019-03-04T18:55:58.280Z,5.90
2019-03-04T18:58:27.687Z,5.90
2019-03-04T19:00:57.268Z,5.90
2019-03-04T19:03:26.671Z,5.80
2019-03-04T19:05:59.510Z,5.70
2019-03-04T19:08:28.479Z,5.70
2019-03-04T19:10:59.296Z,5.60
2019-03-04T19:13:28.763Z,5.60
2019-03-04T19:15:59.471Z,5.50
2019-03-04T19:18:28.983Z,5.50
2019-03-04T19:20:59.656Z,5.50
2019-03-04T19:23:29.155Z,5.40
2019-03-04T19:25:59.828Z,5.40
2019-03-04T19:28:29.339Z,5.40
2019-03-04T19:31:00.394Z,5.40
2019-03-04T19:33:29.839Z,5.30
2019-03-04T19:35:59.252Z,5.30
2019-03-04T19:38:28.760Z,5.30
2019-03-04T19:40:58.241Z,5.20
2019-03-04T19:43:32.904Z,5.20
2019-03-04T19:45:58.775Z,5.10
2019-03-04T19:48:29.178Z,5.10
2019-03-04T19:50:59.982Z,5.10
2019-03-04T19:53:29.729Z,5.10
2019-03-04T19:56:00.622Z,5.00
2019-03-04T19:58:30.228Z,5.10
2019-03-04T20:01:01.159Z,5.00
2019-03-04T20:03:30.855Z,5.10
2019-03-04T20:06:00.587Z,5.00
2019-03-04T20:08:30.344Z,5.00
2019-03-04T20:10:59.926Z,5.00
2019-03-04T20:13:29.511Z,4.90
2019-03-04T20:16:00.417Z,4.90
2019-03-04T20:18:29.938Z,4.90
2019-03-04T20:21:00.727Z,4.90
2019-03-04T20:23:30.449Z,4.90
2019-03-04T20:26:01.407Z,4.90
2019-03-04T20:28:31.044Z,4.90
2019-03-04T20:31:00.543Z,4.90
2019-03-04T20:33:30.171Z,4.80
2019-03-04T20:35:59.823Z,4.90
2019-03-04T20:38:32.832Z,4.80
2019-03-04T20:41:02.647Z,4.80
2019-03-04T20:43:32.204Z,4.80
2019-03-04T20:46:01.695Z,4.70
2019-03-04T20:48:31.410Z,4.70
2019-03-04T20:51:01.239Z,4.70
2019-03-04T20:53:31.051Z,4.70
2019-03-04T20:56:00.824Z,4.70
2019-03-04T20:58:30.284Z,4.70
2019-03-04T21:00:59.955Z,4.70
2019-03-04T21:03:49.037Z,4.70
2019-03-04T21:06:18.474Z,4.70
2019-03-04T21:08:47.891Z,4.70
2019-03-04T21:11:18.805Z,4.60
2019-03-04T21:13:48.283Z,4.70
2019-03-04T21:16:17.735Z,4.60
2019-03-04T21:18:47.148Z,4.70
2019-03-04T21:21:17.962Z,4.60
2019-03-04T21:23:48.495Z,4.50
2019-03-04T21:26:20.856Z,4.50
2019-03-04T21:29:08.663Z,4.50
2019-03-04T21:31:48.975Z,4.40
2019-03-04T21:34:33.486Z,4.40
2019-03-04T21:37:15.063Z,4.40
2019-03-04T21:39:48.564Z,4.40
2019-03-04T21:42:27.270Z,4.30
2019-03-04T21:45:02.960Z,4.30
2019-03-04T21:47:44.385Z,4.20
2019-03-04T21:50:25.870Z,4.30
2019-03-04T21:52:58.952Z,4.30
2019-03-04T21:55:31.689Z,4.30
2019-03-04T21:58:01.218Z,4.30
2019-03-04T22:00:34.822Z,4.20
2019-03-04T22:03:11.506Z,4.20
2019-03-04T22:05:49.804Z,4.20
2019-03-04T22:08:13.470Z,4.20
2019-03-04T22:10:44.152Z,4.20
2019-03-04T22:13:13.672Z,4.20
2019-03-04T22:15:43.147Z,4.30
2019-03-04T22:18:13.173Z,4.30
2019-03-04T22:20:42.918Z,4.30
2019-03-04T22:23:12.421Z,4.30
2019-03-04T22:25:41.832Z,4.40
2019-03-04T22:28:11.350Z,4.30
2019-03-04T22:30:40.761Z,4.40
2019-03-04T22:33:10.197Z,4.40
2019-03-04T22:35:39.587Z,4.40
2019-03-04T22:38:09.022Z,4.40
2019-03-04T22:40:42.478Z,4.40
2019-03-04T22:43:11.991Z,4.40
2019-03-04T22:45:41.406Z,4.40
2019-03-04T22:48:12.573Z,4.40
2019-03-04T22:50:43.455Z,4.40
2019-03-04T22:53:12.966Z,4.40
2019-03-04T22:55:43.644Z,4.50
2019-03-04T22:58:14.871Z,4.50
2019-03-04T23:00:57.800Z,4.50
2019-03-04T23:03:30.556Z,4.60
2019-03-04T23:06:16.785Z,4.60
2019-03-04T23:08:46.296Z,4.60
2019-03-04T23:11:17.716Z,4.50
2019-03-04T23:13:54.948Z,4.50
2019-03-04T23:16:28.466Z,4.50
2019-03-04T23:18:57.993Z,4.40
2019-03-04T23:21:28.887Z,4.40
2019-03-04T23:23:58.460Z,4.40
2019-03-04T23:26:27.867Z,4.40
2019-03-04T23:28:57.359Z,4.50
2019-03-04T23:31:28.063Z,4.50
2019-03-04T23:33:57.542Z,4.60
2019-03-04T23:36:28.354Z,4.50
2019-03-04T23:38:57.764Z,4.50
2019-03-04T23:41:28.745Z,4.60
2019-03-04T23:43:59.707Z,4.50
2019-03-04T23:46:30.684Z,4.50
2019-03-04T23:49:00.168Z,4.40
2019-03-04T23:51:31.150Z,4.30
2019-03-04T23:54:00.605Z,4.20
2019-03-04T23:56:31.539Z,4.20
2019-03-04T23:59:01.017Z,4.20
